createdAt,value
2023-01-30T00:05:01.709Z,1019
2023-01-30T00:15:01.569Z,1019
2023-01-30T00:25:01.732Z,1019
2023-01-30T00:35:01.543Z,1019
2023-01-30T00:45:01.656Z,1019
2023-01-30T00:55:01.558Z,1019
2023-01-30T01:05:01.659Z,1019
2023-01-30T01:15:01.748Z,1019
2023-01-30T01:25:01.654Z,1019
2023-01-30T01:35:01.751Z,1019
2023-01-30T01:45:01.657Z,1019
2023-01-30T01:55:01.746Z,1019
2023-01-30T02:05:01.654Z,1019
2023-01-30T02:15:01.742Z,1019
2023-01-30T02:25:01.652Z,1019
2023-01-30T02:35:01.743Z,1019
2023-01-30T02:45:01.832Z,1019
2023-01-30T02:55:01.729Z,1019
2023-01-30T03:05:01.849Z,1019
2023-01-30T03:15:01.747Z,1019
2023-01-30T03:25:01.859Z,1019
2023-01-30T03:35:01.783Z,1019
2023-01-30T03:45:01.858Z,1019
2023-01-30T03:55:01.760Z,1019
2023-01-30T04:05:01.875Z,1019
2023-01-30T04:15:01.948Z,1019
2023-01-30T04:25:01.890Z,1019
2023-01-30T04:35:01.770Z,1019
2023-01-30T04:45:01.893Z,1020
2023-01-30T04:55:01.990Z,1020
2023-01-30T05:05:01.900Z,1020
2023-01-30T05:15:01.987Z,1020
2023-01-30T05:25:01.902Z,1020
2023-01-30T05:35:01.980Z,1020
2023-01-30T05:45:01.916Z,1020
2023-01-30T05:55:01.978Z,1020
2023-01-30T06:05:01.902Z,1020
2023-01-30T06:15:01.961Z,1020
2023-01-30T06:25:02.086Z,1020
2023-01-30T06:35:01.967Z,1020
2023-01-30T06:45:02.086Z,1021
2023-01-30T06:55:02.009Z,1021
2023-01-30T07:05:02.118Z,1021
2023-01-30T07:15:01.987Z,1021
2023-01-30T07:25:02.115Z,1021
2023-01-30T07:35:03.678Z,1021
2023-01-30T07:45:02.115Z,1021
2023-01-30T07:55:02.061Z,1021
2023-01-30T08:05:03.572Z,1022
2023-01-30T08:15:02.064Z,1022
2023-01-30T08:25:02.209Z,1022
2023-01-30T08:35:02.046Z,1022
2023-01-30T08:45:02.182Z,1022
2023-01-30T08:55:02.067Z,1022
2023-01-30T09:05:02.180Z,1023
2023-01-30T09:15:02.063Z,1023
2023-01-30T09:25:02.348Z,1023
2023-01-30T09:35:02.092Z,1023
2023-01-30T09:45:02.193Z,1023
2023-01-30T09:55:02.280Z,1023
2023-01-30T10:05:02.567Z,1023
2023-01-30T10:15:02.318Z,1024
2023-01-30T10:25:02.377Z,1024
2023-01-30T10:35:02.272Z,1024
2023-01-30T10:45:02.427Z,1024
2023-01-30T10:55:02.264Z,1024
2023-01-30T11:05:02.397Z,1024
2023-01-30T11:15:02.572Z,1025
2023-01-30T11:25:02.656Z,1025
2023-01-30T11:35:02.432Z,1025
2023-01-30T11:45:16.470Z,1026
2023-01-30T11:55:02.926Z,1026
2023-01-30T12:05:02.734Z,1026
2023-01-30T12:15:03.754Z,1026
2023-01-30T12:25:02.699Z,1026
2023-01-30T12:35:03.282Z,1026
2023-01-30T12:45:02.629Z,1027
2023-01-30T12:55:02.411Z,1027
2023-01-30T13:05:04.459Z,1027
2023-01-30T13:15:03.625Z,1027
2023-01-30T13:25:03.316Z,1027
2023-01-30T13:35:02.366Z,1027
2023-01-30T13:45:02.489Z,1027
2023-01-30T13:55:02.406Z,1027
2023-01-30T14:05:02.493Z,1026
2023-01-30T14:15:02.541Z,1026
2023-01-30T14:25:02.462Z,1026
2023-01-30T14:35:03.073Z,1026
2023-01-30T14:45:03.363Z,1026
2023-01-30T14:55:03.947Z,1026
2023-01-30T15:05:02.431Z,1026
2023-01-30T15:15:02.520Z,1026
2023-01-30T15:25:02.488Z,1026
2023-01-30T15:35:02.545Z,1026
2023-01-30T15:45:02.676Z,1026
2023-01-30T15:55:02.532Z,1026
2023-01-30T16:05:02.635Z,1026
2023-01-30T16:15:17.397Z,1026
2023-01-30T16:25:02.634Z,1026
2023-01-30T16:35:02.515Z,1026
2023-01-30T16:45:02.631Z,1026
2023-01-30T16:55:02.746Z,1026
2023-01-30T17:05:02.856Z,1026
2023-01-30T17:15:02.532Z,1026
2023-01-30T17:25:02.683Z,1026
2023-01-30T17:35:02.773Z,1026
2023-01-30T17:45:02.695Z,1026
2023-01-30T17:55:02.570Z,1026
2023-01-30T18:05:02.768Z,1026
2023-01-30T18:15:02.766Z,1026
2023-01-30T18:25:02.705Z,1026
2023-01-30T18:35:02.775Z,1026
2023-01-30T18:45:02.682Z,1025
2023-01-30T18:55:02.759Z,1025
2023-01-30T19:05:02.694Z,1025
2023-01-30T19:15:02.780Z,1025
2023-01-30T19:25:02.858Z,1025
2023-01-30T19:35:02.719Z,1025
2023-01-30T19:45:02.829Z,1024
2023-01-30T19:55:02.724Z,1024
2023-01-30T20:05:02.899Z,1025
2023-01-30T20:15:02.894Z,1024
2023-01-30T20:25:02.842Z,1024
2023-01-30T20:35:02.899Z,1024
2023-01-30T20:45:02.854Z,1024
2023-01-30T20:55:02.903Z,1024
2023-01-30T21:05:03.070Z,1024
2023-01-30T21:15:02.922Z,1024
2023-01-30T21:25:02.827Z,1024
2023-01-30T21:35:02.887Z,1023
2023-01-30T21:45:03.016Z,1023
2023-01-30T21:55:02.893Z,1023
2023-01-30T22:05:02.998Z,1023
2023-01-30T22:15:02.890Z,1023
2023-01-30T22:25:02.995Z,1023
2023-01-30T22:35:02.863Z,1023
2023-01-30T22:45:03.007Z,1023
2023-01-30T22:55:03.055Z,1023
2023-01-30T23:05:02.989Z,1023
2023-01-30T23:15:03.049Z,1023
2023-01-30T23:25:02.972Z,1023
2023-01-30T23:35:03.053Z,1023
2023-01-30T23:45:02.967Z,1022
2023-01-30T23:55:03.051Z,1022
